Time;durP1;ratioP1;P1;durP2;ratioP2;P2;SDS_P1;SDS_P2;PMS_P1;PMS_P2;Temp;Humidity;BMP_temperature;BMP_pressure;BME280_temperature;BME280_humidity;BME280_pressure;Samples;Min_cycle;Max_cycle;Signal;HPM_P1;HPM_P2
2022/09/03 00:00:05;;;;;;;5.60;2.30;;;;;;;19.66;100.00;96075.78;5026297;28;20091;-51
2022/09/03 00:02:42;;;;;;;3.88;2.55;;;;;;;19.88;100.00;96073.66;5019312;28;20520;-55
2022/09/03 00:05:17;;;;;;;4.28;2.20;;;;;;;20.02;100.00;96079.75;5024606;28;20080;-53
2022/09/03 00:07:55;;;;;;;4.50;2.20;;;;;;;19.68;100.00;96078.25;5024511;28;20100;-51
2022/09/03 00:10:29;;;;;;;3.00;2.30;;;;;;;20.11;100.00;96070.47;5019904;28;20084;-53
2022/09/03 00:13:00;;;;;;;4.18;2.17;;;;;;;20.32;100.00;96081.88;5022680;28;20084;-49
2022/09/03 00:15:29;;;;;;;4.05;2.25;;;;;;;20.29;100.00;96074.28;5024353;28;20068;-51
2022/09/03 00:18:02;;;;;;;3.38;2.17;;;;;;;20.48;100.00;96080.56;5026160;28;20092;-50
2022/09/03 00:20:33;;;;;;;3.03;2.35;;;;;;;20.38;100.00;96078.34;5016558;28;20089;-49
2022/09/03 00:23:05;;;;;;;2.97;2.30;;;;;;;20.41;100.00;96079.78;5026985;28;20455;-48
2022/09/03 00:25:37;;;;;;;3.17;2.50;;;;;;;20.45;100.00;96089.84;5024955;28;20084;-52
2022/09/03 00:28:09;;;;;;;3.75;2.40;;;;;;;20.36;100.00;96089.25;5024258;28;20083;-49
2022/09/03 00:30:39;;;;;;;6.10;2.70;;;;;;;20.05;100.00;96089.22;5028495;28;20069;-48
2022/09/03 00:33:09;;;;;;;;;;;;;;;20.27;100.00;96077.19;5023358;28;20104;-48
2022/09/03 00:35:47;;;;;;;6.45;2.70;;;;;;;20.23;100.00;96083.16;5022961;28;19964;-56
2022/09/03 00:38:17;;;;;;;4.13;2.72;;;;;;;20.22;100.00;96084.19;5021885;28;20543;-48
2022/09/03 00:41:02;;;;;;;3.58;2.28;;;;;;;20.42;100.00;96087.59;5018345;28;20060;-48
2022/09/03 00:43:39;;;;;;;3.75;2.22;;;;;;;20.49;100.00;96083.00;5023506;28;20085;-51
2022/09/03 00:46:18;;;;;;;3.70;2.50;;;;;;;20.36;100.00;96083.09;5018360;28;20076;-53
2022/09/03 00:48:57;;;;;;;3.08;2.38;;;;;;;20.38;100.00;96081.84;5022351;28;20072;-52
2022/09/03 00:51:32;;;;;;;3.20;2.45;;;;;;;20.24;100.00;96079.47;5024132;28;20077;-53
2022/09/03 00:54:06;;;;;;;3.70;2.33;;;;;;;20.41;100.00;96074.44;5025582;28;20080;-48
2022/09/03 00:56:39;;;;;;;2.92;2.40;;;;;;;20.52;100.00;96076.44;5024734;28;21774;-51
2022/09/03 00:59:16;;;;;;;4.45;2.35;;;;;;;20.24;100.00;96076.78;5024548;28;20087;-55
2022/09/03 01:01:48;;;;;;;4.57;2.55;;;;;;;20.41;100.00;96077.91;5018585;28;20861;-53
2022/09/03 01:04:28;;;;;;;3.50;2.22;;;;;;;20.09;100.00;96075.19;5017087;28;20081;-52
2022/09/03 01:07:01;;;;;;;2.95;2.42;;;;;;;20.25;100.00;96073.88;5025799;28;20091;-54
2022/09/03 01:09:39;;;;;;;5.35;2.60;;;;;;;20.35;100.00;96076.09;5023651;28;20080;-49
2022/09/03 01:12:14;;;;;;;4.07;2.55;;;;;;;20.30;100.00;96070.56;5023520;28;20546;-48
2022/09/03 01:14:54;;;;;;;3.45;2.72;;;;;;;20.06;100.00;96066.78;5023252;28;20081;-50
2022/09/03 01:17:34;;;;;;;2.67;2.45;;;;;;;20.12;100.00;96074.75;5022242;28;20543;-47
2022/09/03 01:20:11;;;;;;;4.22;2.78;;;;;;;20.49;100.00;96076.84;5025331;28;20164;-52
2022/09/03 01:23:11;;;;;;;3.42;2.58;;;;;;;20.59;100.00;96082.56;5018733;28;20699;-54
2022/09/03 01:25:45;;;;;;;;;;;;;;;20.63;100.00;96086.44;5020855;28;20506;-51
2022/09/03 01:28:23;;;;;;;7.43;2.80;;;;;;;20.53;100.00;96094.16;5020274;28;19968;-53
2022/09/03 01:30:57;;;;;;;4.20;2.85;;;;;;;20.66;100.00;96086.03;5023905;28;20083;-50
2022/09/03 01:33:30;;;;;;;4.13;2.78;;;;;;;20.17;100.00;96076.81;5019448;28;20053;-54
2022/09/03 01:36:03;;;;;;;2.90;2.55;;;;;;;19.87;100.00;96073.88;5026537;28;20069;-49
2022/09/03 01:38:35;;;;;;;3.20;2.35;;;;;;;19.76;100.00;96066.50;5024848;28;20635;-52
2022/09/03 01:43:57;;;;;;;4.22;2.80;;;;;;;19.80;100.00;96075.75;5018809;28;20092;-49
2022/09/03 01:46:31;;;;;;;3.17;2.88;;;;;;;19.42;100.00;96085.28;5025977;28;20084;-53
2022/09/03 01:49:06;;;;;;;5.00;2.67;;;;;;;19.90;100.00;96078.81;5021368;28;20067;-49
2022/09/03 01:51:35;;;;;;;3.38;2.70;;;;;;;20.07;100.00;96077.28;5025316;28;20088;-53
2022/09/03 01:54:23;;;;;;;3.17;2.72;;;;;;;19.95;100.00;96075.47;5018015;28;20089;-50
2022/09/03 01:57:19;;;;;;;3.60;2.60;;;;;;;19.89;100.00;96077.97;5026093;28;20148;-50
2022/09/03 02:00:09;;;;;;;3.55;2.78;;;;;;;20.06;100.00;96081.00;5010137;28;20141;-47
2022/09/03 02:02:37;;;;;;;5.00;2.80;;;;;;;19.96;100.00;96086.00;5019813;28;20072;-52
2022/09/03 02:05:09;;;;;;;2.80;2.53;;;;;;;19.79;100.00;96085.63;5024771;28;20068;-50
2022/09/03 02:07:39;;;;;;;3.88;2.67;;;;;;;19.70;100.00;96086.09;5020818;28;20092;-54
2022/09/03 02:10:09;;;;;;;3.22;2.67;;;;;;;19.66;100.00;96081.16;5019516;28;22240;-52
2022/09/03 02:12:39;;;;;;;4.35;3.10;;;;;;;19.63;100.00;96080.75;5017063;28;20464;-48
2022/09/03 02:15:12;;;;;;;4.82;3.03;;;;;;;19.64;100.00;96082.38;5019425;28;20080;-47
2022/09/03 02:17:43;;;;;;;4.60;3.05;;;;;;;19.63;100.00;96075.41;5025508;28;20872;-52
2022/09/03 02:20:17;;;;;;;3.78;2.83;;;;;;;19.43;100.00;96070.06;5024818;28;20077;-46
2022/09/03 02:22:46;;;;;;;3.90;2.90;;;;;;;19.77;100.00;96060.94;5022178;28;20081;-49
2022/09/03 02:25:14;;;;;;;4.70;3.05;;;;;;;19.61;100.00;96069.41;5021577;28;20739;-46
2022/09/03 02:27:43;;;;;;;3.95;3.25;;;;;;;19.53;100.00;96069.63;5027556;28;20080;-50
2022/09/03 02:30:13;;;;;;;3.80;3.40;;;;;;;19.45;100.00;96062.66;5023367;28;20144;-46
2022/09/03 02:32:42;;;;;;;5.07;3.30;;;;;;;19.24;100.00;96061.06;5025315;28;20085;-48
2022/09/03 02:35:11;;;;;;;3.92;3.38;;;;;;;19.24;100.00;96068.28;5028670;28;20073;-47
2022/09/03 02:37:40;;;;;;;6.10;3.22;;;;;;;19.13;100.00;96067.03;5024472;28;20073;-49
2022/09/03 02:40:10;;;;;;;3.42;3.08;;;;;;;19.43;100.00;96065.53;5025624;28;20073;-49
2022/09/03 02:42:39;;;;;;;5.18;3.30;;;;;;;19.39;100.00;96071.53;5028118;28;20224;-51
2022/09/03 02:45:16;;;;;;;4.63;3.10;;;;;;;19.45;100.00;96076.84;5021976;28;20698;-51
2022/09/03 02:47:45;;;;;;;3.67;3.30;;;;;;;19.29;100.00;96073.81;5020438;28;20490;-51
2022/09/03 02:50:13;;;;;;;3.50;3.20;;;;;;;19.36;100.00;96067.41;5023124;28;20755;-49
2022/09/03 02:52:42;;;;;;;4.47;3.15;;;;;;;19.51;100.00;96069.84;5028391;28;20068;-48
2022/09/03 02:55:10;;;;;;;3.72;3.30;;;;;;;19.30;100.00;96075.44;5020476;28;20547;-51
2022/09/03 02:57:38;;;;;;;3.85;3.45;;;;;;;19.26;100.00;96075.03;5022697;28;20077;-49
2022/09/03 03:00:08;;;;;;;4.22;3.65;;;;;;;19.34;100.00;96074.84;5023376;28;20070;-52
2022/09/03 03:02:38;;;;;;;4.93;3.15;;;;;;;19.31;100.00;96085.13;5025353;28;20574;-48
2022/09/03 03:05:08;;;;;;;5.57;3.15;;;;;;;19.28;100.00;96078.34;5029810;28;20507;-56
2022/09/03 03:07:38;;;;;;;4.25;3.50;;;;;;;19.34;100.00;96073.97;5027164;28;20086;-52
2022/09/03 03:10:07;;;;;;;3.42;3.13;;;;;;;19.07;100.00;96074.06;5027204;28;20103;-50
2022/09/03 03:12:36;;;;;;;5.03;3.40;;;;;;;18.93;100.00;96072.41;5020648;28;20093;-53
2022/09/03 03:15:06;;;;;;;4.20;3.38;;;;;;;18.88;100.00;96078.38;5024068;28;20148;-52
2022/09/03 03:17:34;;;;;;;7.80;3.50;;;;;;;19.03;100.00;96074.66;5024442;28;20088;-50
2022/09/03 03:20:04;;;;;;;5.60;3.25;;;;;;;18.71;100.00;96072.59;5028649;28;20111;-49
2022/09/03 03:22:32;;;;;;;6.03;3.70;;;;;;;18.93;100.00;96073.25;5023047;28;20080;-52
2022/09/03 03:25:01;;;;;;;4.13;3.20;;;;;;;18.91;100.00;96075.28;5025385;28;20061;-49
2022/09/03 03:27:29;;;;;;;4.68;3.50;;;;;;;18.67;100.00;96081.22;5024899;28;20519;-55
2022/09/03 03:29:57;;;;;;;4.75;3.70;;;;;;;18.60;100.00;96083.88;5027511;28;20084;-54
2022/09/03 03:32:26;;;;;;;3.72;3.33;;;;;;;18.59;100.00;96081.41;5025881;28;20084;-52
2022/09/03 03:34:55;;;;;;;4.32;3.22;;;;;;;18.70;100.00;96078.13;5022866;28;20103;-47
2022/09/03 03:37:24;;;;;;;4.38;3.45;;;;;;;18.48;100.00;96088.19;5024198;28;20077;-47
2022/09/03 03:39:53;;;;;;;5.27;3.33;;;;;;;18.47;100.00;96082.00;5028751;28;20068;-48
2022/09/03 03:42:21;;;;;;;5.43;3.67;;;;;;;18.56;100.00;96071.97;5027651;28;20104;-47
2022/09/03 03:44:49;;;;;;;3.97;3.28;;;;;;;18.56;100.00;96074.63;5027249;28;20073;-50
2022/09/03 03:47:18;;;;;;;4.90;3.63;;;;;;;18.52;100.00;96077.94;5023945;28;20073;-54
2022/09/03 03:49:46;;;;;;;4.50;3.67;;;;;;;18.34;100.00;96078.47;5022746;28;20522;-52
2022/09/03 03:52:14;;;;;;;4.00;3.60;;;;;;;18.57;100.00;96086.94;5022104;28;20077;-51
2022/09/03 03:54:44;;;;;;;4.03;3.63;;;;;;;18.51;100.00;96082.41;5024578;28;20088;-47
2022/09/03 03:57:12;;;;;;;5.13;3.60;;;;;;;18.47;100.00;96076.66;5021449;28;20468;-47
2022/09/03 03:59:41;;;;;;;7.55;3.45;;;;;;;18.30;100.00;96079.91;5021496;28;20504;-52
2022/09/03 04:02:09;;;;;;;5.50;3.78;;;;;;;18.39;100.00;96081.38;5018668;28;20073;-49
2022/09/03 04:04:37;;;;;;;5.25;3.63;;;;;;;18.38;100.00;96079.75;5025838;28;20476;-52
2022/09/03 04:07:06;;;;;;;5.15;3.67;;;;;;;18.36;100.00;96079.94;5030374;28;20083;-54
2022/09/03 04:09:34;;;;;;;4.63;3.60;;;;;;;18.31;100.00;96079.72;5030885;28;20088;-50
2022/09/03 04:12:07;;;;;;;3.88;3.47;;;;;;;18.03;100.00;96071.84;5029480;28;20792;-50
2022/09/03 04:14:35;;;;;;;4.57;3.67;;;;;;;18.04;100.00;96068.16;5030614;28;20076;-52
2022/09/03 04:17:04;;;;;;;4.45;3.47;;;;;;;17.59;100.00;96070.44;5023870;28;20475;-51
2022/09/03 04:19:32;;;;;;;6.80;3.72;;;;;;;17.53;100.00;96074.69;5025614;28;20076;-50
2022/09/03 04:22:02;;;;;;;7.63;3.78;;;;;;;17.56;100.00;96068.97;5022831;28;20073;-48
2022/09/03 04:24:31;;;;;;;4.75;3.70;;;;;;;18.12;100.00;96064.50;5026935;28;20080;-46
2022/09/03 04:26:59;;;;;;;4.10;3.47;;;;;;;18.32;100.00;96072.53;5029760;28;20107;-50
2022/09/03 04:29:30;;;;;;;5.75;3.80;;;;;;;18.39;100.00;96071.53;5026598;28;20535;-48
2022/09/03 04:34:40;;;;;;;3.92;3.42;;;;;;;18.37;100.00;96080.75;5018710;28;20370;-47
2022/09/03 04:37:09;;;;;;;4.47;3.03;;;;;;;18.49;100.00;96089.81;5027665;28;20077;-46
2022/09/03 04:39:38;;;;;;;3.40;3.03;;;;;;;18.36;100.00;96097.81;5025546;28;20595;-48
2022/09/03 04:42:06;;;;;;;5.35;3.28;;;;;;;18.19;100.00;96095.50;5028907;28;20092;-52
2022/09/03 04:44:37;;;;;;;4.43;3.33;;;;;;;18.18;100.00;96104.53;5028411;28;20073;-45
2022/09/03 04:47:05;;;;;;;;;;;;;;;17.56;100.00;96108.97;5027531;28;20469;-49
2022/09/03 04:49:33;;;;;;;4.28;3.30;;;;;;;17.05;100.00;96109.25;5027531;28;20399;-49
2022/09/03 04:52:02;;;;;;;5.85;3.60;;;;;;;17.90;100.00;96112.66;5028488;28;20601;-48
2022/09/03 04:54:30;;;;;;;4.30;3.58;;;;;;;18.17;100.00;96105.56;5031178;28;20558;-48
2022/09/03 04:56:58;;;;;;;5.18;3.60;;;;;;;18.61;100.00;96109.53;5028792;28;20088;-48
2022/09/03 04:59:27;;;;;;;4.10;3.70;;;;;;;18.94;100.00;96103.44;5023561;28;20088;-46
2022/09/03 05:01:57;;;;;;;6.07;4.40;;;;;;;19.32;100.00;96098.28;5023931;28;20041;-47
2022/09/03 05:04:25;;;;;;;4.90;3.65;;;;;;;20.17;100.00;96092.88;5024298;28;20161;-51
2022/09/03 05:06:53;;;;;;;5.47;3.58;;;;;;;20.73;100.00;96102.88;5025441;28;20073;-52
2022/09/03 05:09:32;;;;;;;5.82;3.58;;;;;;;21.27;100.00;96100.59;5164374;27;20551;-52
2022/09/03 05:12:01;;;;;;;3.80;3.17;;;;;;;21.75;100.00;96108.78;5165643;27;20069;-52
2022/09/03 05:14:29;;;;;;;4.50;3.00;;;;;;;22.34;100.00;96119.06;5163681;27;20074;-52
2022/09/03 05:16:57;;;;;;;4.53;3.00;;;;;;;22.21;100.00;96112.00;5157920;27;20073;-50
2022/09/03 05:19:26;;;;;;;6.38;2.85;;;;;;;21.64;100.00;96117.56;5163036;27;20081;-52
2022/09/03 05:21:54;;;;;;;3.20;2.63;;;;;;;21.02;100.00;96122.03;5164815;27;20163;-50
2022/09/03 05:24:23;;;;;;;6.15;3.10;;;;;;;21.38;100.00;96121.34;5154277;27;20081;-54
2022/09/03 05:26:54;;;;;;;3.70;2.83;;;;;;;21.73;100.00;96123.47;5155148;27;20086;-51
2022/09/03 05:29:23;;;;;;;;;;;;;;;21.97;100.00;96114.50;5160033;27;20078;-52
2022/09/03 05:31:51;;;;;;;4.05;2.88;;;;;;;21.59;100.00;96111.25;5160144;27;19958;-47
2022/09/03 05:34:19;;;;;;;3.50;2.97;;;;;;;20.65;100.00;96123.72;5147633;27;20085;-50
2022/09/03 05:36:48;;;;;;;3.80;3.08;;;;;;;21.27;100.00;96120.19;5157312;27;20078;-54
2022/09/03 05:39:16;;;;;;;5.13;3.30;;;;;;;21.20;100.00;96123.97;5153052;27;20070;-54
2022/09/03 05:41:45;;;;;;;3.63;3.10;;;;;;;21.55;100.00;96119.72;5158171;27;20243;-49
2022/09/03 05:44:15;;;;;;;7.00;3.08;;;;;;;21.42;100.00;96122.53;5154603;27;20570;-54
2022/09/03 05:46:43;;;;;;;4.03;3.40;;;;;;;21.43;100.00;96120.66;5156991;27;20460;-53
2022/09/03 05:49:11;;;;;;;5.07;3.22;;;;;;;20.88;100.00;96126.66;5168366;27;20074;-52
2022/09/03 05:51:41;;;;;;;6.10;3.20;;;;;;;21.20;100.00;96129.31;5166750;27;20077;-53
2022/09/03 05:54:10;;;;;;;6.88;3.30;;;;;;;21.68;100.00;96147.44;5154620;27;20074;-56
2022/09/03 05:56:40;;;;;;;4.90;3.13;;;;;;;21.73;100.00;96153.81;5163365;27;20693;-49
2022/09/03 05:59:09;;;;;;;4.10;3.17;;;;;;;22.33;91.99;96146.94;5158663;27;20737;-47
2022/09/03 06:01:41;;;;;;;4.20;3.20;;;;;;;22.11;100.00;96149.28;5160381;27;20074;-51
2022/09/03 06:04:19;;;;;;;4.00;2.95;;;;;;;21.85;100.00;96159.28;5151995;27;20086;-54
2022/09/03 06:06:48;;;;;;;4.00;3.20;;;;;;;22.31;92.25;96146.38;5156300;27;20089;-50
2022/09/03 06:09:18;;;;;;;3.38;3.00;;;;;;;22.61;94.22;96141.00;5157786;27;20071;-55
2022/09/03 06:11:48;;;;;;;4.18;3.30;;;;;;;21.55;100.00;96143.06;5153371;27;20552;-52
2022/09/03 06:14:17;;;;;;;4.30;2.95;;;;;;;22.48;95.93;96142.84;5156072;27;20070;-47
2022/09/03 06:16:48;;;;;;;3.10;2.80;;;;;;;22.94;86.92;96141.38;5163696;27;20114;-53
2022/09/03 06:19:17;;;;;;;4.30;2.92;;;;;;;22.91;85.01;96140.97;5161301;27;20545;-52
2022/09/03 06:21:46;;;;;;;5.07;2.95;;;;;;;23.10;85.99;96155.22;5150025;27;20085;-51
2022/09/03 06:24:16;;;;;;;3.75;3.03;;;;;;;21.85;100.00;96150.38;5143139;27;20105;-48
2022/09/03 06:26:45;;;;;;;3.88;3.13;;;;;;;21.32;100.00;96152.50;5149560;27;20063;-53
2022/09/03 06:29:14;;;;;;;5.40;3.20;;;;;;;21.28;100.00;96145.13;5146164;27;20121;-47
2022/09/03 06:31:43;;;;;;;4.57;3.10;;;;;;;21.09;100.00;96131.69;5146039;27;20082;-47
2022/09/03 06:34:13;;;;;;;4.22;3.45;;;;;;;20.17;100.00;96138.41;5146325;27;20078;-53
2022/09/03 06:36:43;;;;;;;4.10;3.30;;;;;;;21.22;100.00;96137.94;5139574;27;20088;-50
2022/09/03 06:39:11;;;;;;;4.18;3.22;;;;;;;21.65;100.00;96132.63;5138966;27;20082;-54
2022/09/03 06:41:39;;;;;;;5.05;3.30;;;;;;;21.88;100.00;96131.13;5145497;27;20074;-53
2022/09/03 06:44:11;;;;;;;4.10;3.30;;;;;;;21.48;100.00;96142.31;5152256;27;20114;-54
2022/09/03 06:46:41;;;;;;;4.25;3.45;;;;;;;22.07;100.00;96145.41;5145685;27;20083;-52
2022/09/03 06:49:09;;;;;;;;;;;;;;;22.09;100.00;96152.16;5152187;27;20074;-55
2022/09/03 06:51:39;;;;;;;4.97;3.08;;;;;;;23.09;99.45;96154.41;5132105;27;20393;-49
2022/09/03 06:54:10;;;;;;;6.78;3.67;;;;;;;22.72;100.00;96164.44;5138180;27;20093;-52
2022/09/03 06:56:40;;;;;;;5.63;3.30;;;;;;;22.33;100.00;96165.75;5135408;27;20446;-49
2022/09/03 06:59:09;;;;;;;6.53;3.10;;;;;;;22.20;100.00;96172.13;5151663;27;20086;-51
2022/09/03 07:01:39;;;;;;;5.05;3.50;;;;;;;21.97;100.00;96176.28;5142561;27;20090;-49
2022/09/03 07:04:12;;;;;;;4.75;3.60;;;;;;;22.03;100.00;96164.66;5139694;27;20085;-53
2022/09/03 07:06:43;;;;;;;6.22;3.38;;;;;;;23.05;100.00;96169.34;5138138;27;20452;-54
2022/09/03 07:09:12;;;;;;;5.75;3.50;;;;;;;22.62;100.00;96169.53;5146254;27;20082;-54
2022/09/03 07:11:45;;;;;;;5.00;3.55;;;;;;;21.97;100.00;96176.28;5150018;27;20067;-50
2022/09/03 07:14:16;;;;;;;4.82;3.75;;;;;;;22.50;100.00;96189.13;5145941;27;20082;-53
2022/09/03 07:16:44;;;;;;;4.43;3.33;;;;;;;22.75;100.00;96186.31;5144601;27;20082;-50
2022/09/03 07:19:13;;;;;;;3.97;3.55;;;;;;;23.27;100.00;96187.66;5150001;27;20071;-49
2022/09/03 07:21:44;;;;;;;4.60;3.22;;;;;;;23.40;100.00;96179.34;5145345;27;20078;-48
2022/09/03 07:24:18;;;;;;;5.80;3.50;;;;;;;23.91;92.12;96175.16;5138050;27;20082;-53
2022/09/03 07:26:47;;;;;;;5.07;3.70;;;;;;;23.30;100.00;96177.25;5142447;27;20074;-54
2022/09/03 07:29:18;;;;;;;4.17;3.33;;;;;;;23.80;97.95;96171.44;5146617;27;20074;-58
2022/09/03 07:31:50;;;;;;;6.18;3.90;;;;;;;23.60;94.76;96176.31;5149517;27;20101;-47
2022/09/03 07:34:19;;;;;;;4.20;3.40;;;;;;;23.98;89.55;96175.84;5139929;27;20808;-47
2022/09/03 07:36:51;;;;;;;5.72;3.30;;;;;;;23.97;92.38;96176.91;5147848;27;20089;-48
2022/09/03 07:39:19;;;;;;;6.03;3.67;;;;;;;22.84;100.00;96173.34;5139388;27;20101;-52
2022/09/03 07:41:49;;;;;;;4.45;3.30;;;;;;;22.95;100.00;96179.84;5149263;27;20081;-47
2022/09/03 07:44:19;;;;;;;5.63;3.67;;;;;;;23.11;100.00;96181.06;5146860;27;20086;-49
2022/09/03 07:46:49;;;;;;;5.32;3.60;;;;;;;22.08;100.00;96196.19;5148827;27;20104;-50
2022/09/03 07:49:19;;;;;;;6.47;4.20;;;;;;;23.26;100.00;96194.06;5141134;27;20089;-50
2022/09/03 07:51:49;;;;;;;4.65;3.95;;;;;;;23.28;100.00;96190.09;5134703;27;20085;-51
2022/09/03 07:54:20;;;;;;;5.13;4.13;;;;;;;21.98;100.00;96191.31;5139484;27;20078;-53
2022/09/03 07:56:48;;;;;;;5.38;3.78;;;;;;;22.69;100.00;96189.91;5143429;27;20460;-50
2022/09/03 07:59:18;;;;;;;6.63;3.97;;;;;;;22.58;100.00;96181.78;5147032;27;20078;-48
2022/09/03 08:01:46;;;;;;;5.43;4.20;;;;;;;22.79;100.00;96193.91;5141323;27;20073;-51
2022/09/03 08:04:14;;;;;;;6.25;3.90;;;;;;;23.09;100.00;96191.22;5143875;27;20074;-50
2022/09/03 08:06:43;;;;;;;6.05;4.00;;;;;;;23.10;100.00;96187.50;5145448;27;20513;-48
2022/09/03 08:09:12;;;;;;;5.40;3.95;;;;;;;23.30;100.00;96185.31;5149780;27;20078;-52
2022/09/03 08:11:43;;;;;;;5.70;4.03;;;;;;;22.44;100.00;96197.25;5141869;27;20480;-52
2022/09/03 08:14:13;;;;;;;5.38;3.95;;;;;;;22.81;100.00;96191.78;5139109;27;20075;-49
2022/09/03 08:16:43;;;;;;;5.60;3.72;;;;;;;23.57;100.00;96187.53;5149669;27;20069;-53
2022/09/03 08:19:11;;;;;;;5.97;3.97;;;;;;;24.16;100.00;96180.31;5141707;27;20078;-52
2022/09/03 08:21:41;;;;;;;4.22;3.72;;;;;;;24.15;100.00;96184.84;5142682;27;20151;-48
2022/09/03 08:24:11;;;;;;;6.90;4.07;;;;;;;24.78;97.63;96175.09;5143998;27;20090;-54
2022/09/03 08:26:42;;;;;;;6.03;3.63;;;;;;;24.00;100.00;96187.22;5147734;27;20078;-49
2022/09/03 08:29:17;;;;;;;8.50;3.38;;;;;;;24.20;100.00;96176.06;5138231;27;20643;-51
2022/09/03 08:31:46;;;;;;;6.65;3.95;;;;;;;24.29;100.00;96181.91;5142847;27;20082;-52
2022/09/03 08:34:16;;;;;;;4.70;3.53;;;;;;;25.43;81.21;96183.78;5147688;27;20086;-49
2022/09/03 08:36:45;;;;;;;6.32;3.55;;;;;;;24.60;93.84;96177.97;5132715;27;20078;-49
2022/09/03 08:39:13;;;;;;;10.40;3.92;;;;;;;24.16;100.00;96193.78;5150330;27;20465;-49
2022/09/03 08:42:17;;;;;;;5.05;3.55;;;;;;;24.98;92.67;96195.41;5143254;27;20079;-49
2022/09/03 08:44:47;;;;;;;7.20;3.75;;;;;;;24.81;92.45;96190.81;5136951;27;20090;-56
2022/09/03 08:47:20;;;;;;;6.63;3.67;;;;;;;25.89;77.75;96190.75;5137136;27;20466;-50
2022/09/03 08:49:53;;;;;;;3.97;3.50;;;;;;;25.25;84.92;96192.94;5147575;27;20086;-52
2022/09/03 08:52:28;;;;;;;4.55;3.75;;;;;;;24.63;97.66;96189.09;5138492;27;20450;-51
2022/09/03 08:55:03;;;;;;;4.20;3.80;;;;;;;24.17;100.00;96200.78;5136157;27;20565;-53
2022/09/03 08:57:41;;;;;;;4.95;3.70;;;;;;;24.63;100.00;96197.19;5154195;27;20086;-50
2022/09/03 09:00:11;;;;;;;6.07;3.58;;;;;;;25.23;92.60;96190.50;5137950;27;20429;-50
2022/09/03 09:02:48;;;;;;;4.68;3.55;;;;;;;24.68;100.00;96193.78;5146167;27;20069;-53
2022/09/03 09:05:19;;;;;;;5.63;3.90;;;;;;;24.17;100.00;96182.75;5129974;27;20085;-52
2022/09/03 09:07:52;;;;;;;4.95;3.80;;;;;;;24.60;100.00;96186.06;5142887;27;20078;-50
2022/09/03 09:10:26;;;;;;;8.00;4.10;;;;;;;24.69;100.00;96184.63;5140183;27;20083;-52
2022/09/03 09:13:07;;;;;;;5.43;4.35;;;;;;;25.07;94.48;96183.97;5140096;27;20090;-50
2022/09/03 09:15:40;;;;;;;5.25;4.40;;;;;;;24.11;100.00;96180.19;5136896;27;20082;-46
2022/09/03 09:18:14;;;;;;;5.82;4.18;;;;;;;25.45;91.61;96173.56;5145717;27;20086;-51
2022/09/03 09:20:47;;;;;;;4.93;4.15;;;;;;;24.74;93.44;96175.81;5143298;27;20078;-48
2022/09/03 09:23:19;;;;;;;6.65;4.30;;;;;;;25.22;93.69;96177.22;5143206;27;20101;-49
2022/09/03 09:25:50;;;;;;;4.55;4.00;;;;;;;24.75;100.00;96178.28;5145411;27;20089;-52
2022/09/03 09:28:22;;;;;;;5.38;4.28;;;;;;;24.52;98.94;96178.34;5138553;27;20090;-53
2022/09/03 09:30:52;;;;;;;5.63;4.10;;;;;;;25.44;95.67;96169.22;5136172;27;20047;-52
2022/09/03 09:33:21;;;;;;;4.07;3.47;;;;;;;25.57;100.00;96175.13;5143269;27;20111;-49
2022/09/03 09:35:50;;;;;;;6.03;4.07;;;;;;;26.00;95.62;96170.09;5138415;27;20442;-52
2022/09/03 09:38:28;;;;;;;4.75;4.15;;;;;;;26.06;85.18;96166.41;5142877;27;20145;-49
2022/09/03 09:40:58;;;;;;;6.55;4.25;;;;;;;25.60;83.36;96176.50;5132488;27;20078;-53
2022/09/03 09:43:28;;;;;;;8.73;3.88;;;;;;;26.31;86.87;96157.78;5133132;27;20075;-54
2022/09/03 09:46:07;;;;;;;7.65;4.25;;;;;;;26.77;84.27;96161.03;5133777;27;20074;-54
2022/09/03 09:48:39;;;;;;;5.90;4.15;;;;;;;26.34;86.65;96153.78;5136035;27;20087;-48
2022/09/03 09:51:10;;;;;;;4.43;3.80;;;;;;;26.07;85.55;96159.91;5141755;27;20078;-50
2022/09/03 09:53:39;;;;;;;4.50;3.72;;;;;;;26.58;84.15;96155.16;5145958;27;20083;-54
2022/09/03 09:56:08;;;;;;;6.07;3.83;;;;;;;27.91;71.65;96148.22;5144622;27;20081;-47
2022/09/03 09:58:38;;;;;;;5.65;3.30;;;;;;;27.66;71.73;96163.19;5147861;27;20536;-52
2022/09/03 10:01:12;;;;;;;;;;;;;;;27.01;77.74;96166.16;5134607;27;20075;-52
2022/09/03 10:03:49;;;;;;;4.63;3.63;;;;;;;28.10;67.17;96149.41;5152363;27;19965;-51
2022/09/03 10:09:07;;;;;;;3.35;3.05;;;;;;;28.01;66.57;96152.88;5151504;27;20096;-56
2022/09/03 10:11:38;;;;;;;3.75;3.00;;;;;;;28.37;66.88;96151.16;5145355;27;20089;-54
2022/09/03 10:14:13;;;;;;;5.05;3.13;;;;;;;28.53;63.25;96152.88;5151755;27;20073;-47
2022/09/03 10:16:47;;;;;;;3.17;2.88;;;;;;;30.03;55.01;96147.28;5142782;27;20176;-52
2022/09/03 10:19:21;;;;;;;6.53;2.92;;;;;;;29.29;57.51;96154.16;5132882;27;20071;-47
2022/09/03 10:21:54;;;;;;;3.28;2.80;;;;;;;29.28;59.20;96156.00;5141862;27;20074;-46
2022/09/03 10:24:38;;;;;;;4.78;2.90;;;;;;;28.43;62.06;96160.19;5147136;27;20078;-48
2022/09/03 10:27:10;;;;;;;3.53;2.92;;;;;;;29.34;57.52;96151.41;5148088;27;20081;-52
2022/09/03 10:29:40;;;;;;;3.20;2.90;;;;;;;28.81;57.14;96156.22;5144726;27;20078;-53
2022/09/03 10:32:22;;;;;;;5.07;2.95;;;;;;;30.09;53.41;96150.81;5152018;27;20093;-53
2022/09/03 10:34:58;;;;;;;3.05;2.65;;;;;;;30.37;50.70;96155.63;5132632;27;20075;-50
2022/09/03 10:37:34;;;;;;;3.33;2.80;;;;;;;29.73;54.94;96153.59;5139486;27;20089;-49
2022/09/03 10:40:13;;;;;;;2.60;2.30;;;;;;;30.63;50.92;96147.38;5141321;27;20081;-52
2022/09/03 10:42:45;;;;;;;4.18;2.35;;;;;;;31.07;47.44;96146.56;5146351;27;20082;-50
2022/09/03 10:45:19;;;;;;;2.83;2.47;;;;;;;28.93;57.18;96150.53;5144942;27;20112;-52
2022/09/03 10:48:13;;;;;;;2.92;2.63;;;;;;;29.25;56.26;96156.59;5138310;27;20074;-51
2022/09/03 10:50:48;;;;;;;3.55;2.42;;;;;;;29.16;54.35;96158.19;5143373;27;20074;-51
2022/09/03 10:53:30;;;;;;;3.72;2.60;;;;;;;29.79;50.26;96157.94;5142838;27;20083;-51
2022/09/03 10:56:01;;;;;;;3.17;2.08;;;;;;;28.89;55.60;96158.41;5149736;27;20142;-49
2022/09/03 10:58:48;;;;;;;2.50;2.00;;;;;;;29.40;54.47;96160.38;5146798;27;20082;-56
2022/09/03 11:01:27;;;;;;;2.72;2.00;;;;;;;29.28;52.84;96158.72;5138642;27;20081;-52
2022/09/03 11:04:02;;;;;;;2.60;2.08;;;;;;;29.15;55.66;96156.59;5149285;27;20079;-53
2022/09/03 11:06:37;;;;;;;2.42;2.10;;;;;;;30.36;49.10;96148.56;5145185;27;20107;-54
2022/09/03 11:09:12;;;;;;;2.38;2.15;;;;;;;29.42;52.82;96147.34;5144615;27;20528;-51
2022/09/03 11:11:44;;;;;;;2.55;1.95;;;;;;;30.74;48.27;96143.47;5151459;27;20078;-54
2022/09/03 11:14:14;;;;;;;2.35;2.15;;;;;;;31.12;45.46;96147.34;5139384;27;20078;-52
2022/09/03 11:16:47;;;;;;;2.78;2.00;;;;;;;31.62;43.59;96141.78;5144905;27;20109;-52
2022/09/03 11:19:18;;;;;;;3.28;2.25;;;;;;;31.50;43.43;96144.09;5141423;27;20463;-57
2022/09/03 11:21:48;;;;;;;3.33;1.70;;;;;;;31.57;43.34;96139.13;5142972;27;20591;-51
2022/09/03 11:24:20;;;;;;;2.63;2.00;;;;;;;32.11;41.29;96130.69;5145469;27;20078;-50
2022/09/03 11:26:53;;;;;;;2.75;2.20;;;;;;;30.62;44.24;96132.91;5153051;27;20552;-53
2022/09/03 11:29:31;;;;;;;2.70;1.92;;;;;;;31.20;44.12;96126.84;5144433;27;20075;-49
2022/09/03 11:32:02;;;;;;;3.20;1.83;;;;;;;30.45;45.02;96130.53;5136591;27;20579;-50
2022/09/03 11:34:32;;;;;;;2.42;1.92;;;;;;;30.58;45.54;96123.69;5152353;27;20058;-51
2022/09/03 11:37:17;;;;;;;2.38;2.13;;;;;;;31.92;42.14;96116.16;5138447;27;20074;-49
2022/09/03 11:39:54;;;;;;;3.10;1.90;;;;;;;31.99;42.66;96113.09;5130985;27;20110;-53
2022/09/03 11:42:32;;;;;;;2.85;1.80;;;;;;;32.04;40.89;96108.41;5131159;27;20139;-53
2022/09/03 11:45:23;;;;;;;4.00;2.00;;;;;;;32.41;40.61;96115.03;5145359;27;20082;-51
2022/09/03 11:47:53;;;;;;;1.73;1.63;;;;;;;32.29;40.69;96110.00;5148323;27;20105;-50
2022/09/03 11:50:23;;;;;;;;;;;;;;;30.37;43.54;96122.16;5150934;27;20074;-48
2022/09/03 11:52:53;;;;;;;3.38;3.05;;;;;;;30.37;45.32;96112.09;5146745;27;19959;-51
2022/09/03 11:55:30;;;;;;;20.77;4.13;;;;;;;30.85;45.49;96115.13;5144404;27;20046;-51
2022/09/03 11:58:25;;;;;;;3.53;2.10;;;;;;;30.48;44.46;96112.84;5140238;27;20070;-54